createdAt,value
2022-09-17T00:00:31.794Z,0.00
2022-09-17T00:01:17.132Z,0.00
2022-09-17T00:02:03.179Z,0.00
2022-09-17T00:02:49.181Z,0.00
2022-09-17T00:03:35.156Z,0.00
2022-09-17T00:04:21.104Z,0.00
2022-09-17T00:05:07.144Z,0.00
2022-09-17T00:05:53.105Z,0.00
2022-09-17T00:06:39.165Z,0.00
2022-09-17T00:07:25.128Z,0.00
2022-09-17T00:08:11.114Z,0.00
2022-09-17T00:08:57.169Z,0.00
2022-09-17T00:09:43.189Z,0.00
2022-09-17T00:10:29.805Z,0.00
2022-09-17T00:11:15.357Z,0.00
2022-09-17T00:12:01.899Z,0.00
2022-09-17T00:12:47.147Z,0.00
2022-09-17T00:13:33.204Z,0.00
2022-09-17T00:14:19.190Z,0.00
2022-09-17T00:15:05.249Z,0.00
2022-09-17T00:15:51.254Z,0.00
2022-09-17T00:16:37.296Z,0.00
2022-09-17T00:17:23.161Z,0.00
2022-09-17T00:18:09.212Z,0.00
2022-09-17T00:18:55.214Z,0.00
2022-09-17T00:19:41.201Z,0.00
2022-09-17T00:20:27.210Z,0.00
2022-09-17T00:21:13.290Z,0.00
2022-09-17T00:21:59.187Z,0.00
2022-09-17T00:22:45.195Z,0.00
2022-09-17T00:23:31.922Z,0.00
2022-09-17T00:24:17.191Z,0.00
2022-09-17T00:25:03.241Z,0.00
2022-09-17T00:25:49.289Z,0.00
2022-09-17T00:26:35.238Z,0.00
2022-09-17T00:27:21.373Z,0.00
2022-09-17T00:28:07.217Z,0.00
2022-09-17T00:28:53.276Z,0.00
2022-09-17T00:29:39.226Z,0.00
2022-09-17T00:30:25.265Z,0.00
2022-09-17T00:31:11.214Z,0.00
2022-09-17T00:31:57.226Z,0.00
2022-09-17T00:32:43.266Z,0.00
2022-09-17T00:33:29.200Z,0.00
2022-09-17T00:34:15.229Z,0.00
2022-09-17T00:35:01.229Z,0.00
2022-09-17T00:35:47.238Z,0.00
2022-09-17T00:36:33.309Z,0.00
2022-09-17T00:37:19.190Z,0.00
2022-09-17T00:38:05.256Z,0.00
2022-09-17T00:38:51.234Z,0.00
2022-09-17T00:39:37.252Z,0.00
2022-09-17T00:40:23.359Z,0.00
2022-09-17T00:41:09.214Z,0.00
2022-09-17T00:41:55.229Z,0.00
2022-09-17T00:42:41.256Z,0.00
2022-09-17T00:43:27.350Z,0.00
2022-09-17T00:44:13.316Z,0.00
2022-09-17T00:44:59.265Z,0.00
2022-09-17T00:45:45.245Z,0.00
2022-09-17T00:46:31.952Z,0.00
2022-09-17T00:47:17.233Z,0.00
2022-09-17T00:48:03.235Z,0.00
2022-09-17T00:48:49.236Z,0.00
2022-09-17T00:49:35.274Z,0.00
2022-09-17T00:50:21.232Z,0.00
2022-09-17T00:51:07.254Z,0.00
2022-09-17T00:51:57.044Z,0.00
2022-09-17T00:52:39.280Z,0.00
2022-09-17T00:53:25.242Z,0.00
2022-09-17T00:54:11.284Z,0.00
2022-09-17T00:54:57.269Z,0.00
2022-09-17T00:55:43.343Z,0.00
2022-09-17T00:56:29.295Z,0.00
2022-09-17T00:57:15.243Z,0.00
2022-09-17T00:58:01.367Z,0.00
2022-09-17T00:58:47.335Z,0.00
2022-09-17T00:59:33.289Z,0.00
2022-09-17T01:00:19.284Z,0.00
2022-09-17T01:01:05.304Z,0.00
2022-09-17T01:01:51.304Z,0.00
2022-09-17T01:02:37.263Z,0.00
2022-09-17T01:03:23.337Z,0.00
2022-09-17T01:04:09.313Z,0.00
2022-09-17T01:04:55.292Z,0.00
2022-09-17T01:05:41.238Z,0.00
2022-09-17T01:06:27.297Z,0.00
2022-09-17T01:07:13.293Z,0.00
2022-09-17T01:07:59.398Z,0.00
2022-09-17T01:08:45.376Z,0.00
2022-09-17T01:09:31.848Z,0.00
2022-09-17T01:10:17.320Z,0.00
2022-09-17T01:11:03.317Z,0.00
2022-09-17T01:11:49.352Z,0.00
2022-09-17T01:12:35.883Z,0.00
2022-09-17T01:13:21.276Z,0.00
2022-09-17T01:14:07.344Z,0.00
2022-09-17T01:14:53.450Z,0.00
2022-09-17T01:15:39.431Z,0.00
2022-09-17T01:16:25.383Z,0.00
2022-09-17T01:17:11.326Z,0.00
2022-09-17T01:17:57.312Z,0.00
2022-09-17T01:18:43.391Z,0.00
2022-09-17T01:19:29.361Z,0.00
2022-09-17T01:20:15.285Z,0.00
2022-09-17T01:21:01.403Z,0.00
2022-09-17T01:21:47.272Z,0.00
2022-09-17T01:22:33.348Z,0.00
2022-09-17T01:23:19.336Z,0.00
2022-09-17T01:24:05.362Z,0.00
2022-09-17T01:24:51.442Z,0.00
2022-09-17T01:25:37.324Z,0.00
2022-09-17T01:26:23.333Z,0.00
2022-09-17T01:27:09.382Z,0.00
2022-09-17T01:27:55.409Z,0.00
2022-09-17T01:28:41.347Z,0.00
2022-09-17T01:29:27.385Z,0.00
2022-09-17T01:30:13.523Z,0.00
2022-09-17T01:30:59.471Z,0.00
2022-09-17T01:31:45.414Z,0.00
2022-09-17T01:32:31.948Z,0.00
2022-09-17T01:33:17.391Z,0.00
2022-09-17T01:34:03.316Z,0.00
2022-09-17T01:34:49.401Z,0.00
2022-09-17T01:35:35.387Z,0.00
2022-09-17T01:36:21.432Z,0.00
2022-09-17T01:37:07.387Z,0.00
2022-09-17T01:37:53.399Z,0.00
2022-09-17T01:38:39.355Z,0.00
2022-09-17T01:39:25.385Z,0.00
2022-09-17T01:40:11.377Z,0.00
2022-09-17T01:40:57.554Z,0.00
2022-09-17T01:41:43.485Z,0.00
2022-09-17T01:42:29.388Z,0.00
2022-09-17T01:43:15.382Z,0.00
2022-09-17T01:44:01.557Z,0.00
2022-09-17T01:44:47.428Z,0.00
2022-09-17T01:45:33.464Z,0.00
2022-09-17T01:46:19.467Z,0.00
2022-09-17T01:47:05.439Z,0.00
2022-09-17T01:47:51.425Z,0.00
2022-09-17T01:48:37.402Z,0.00
2022-09-17T01:49:23.375Z,0.00
2022-09-17T01:50:09.383Z,0.00
2022-09-17T01:50:55.433Z,0.00
2022-09-17T01:51:41.375Z,0.00
2022-09-17T01:52:27.394Z,0.00
2022-09-17T01:53:13.472Z,0.00
2022-09-17T01:53:59.647Z,0.00
2022-09-17T01:54:45.366Z,0.00
2022-09-17T01:55:32.021Z,0.00
2022-09-17T01:56:17.451Z,0.00
2022-09-17T01:57:03.472Z,0.00
2022-09-17T01:57:49.565Z,0.00
2022-09-17T01:58:35.593Z,0.00
2022-09-17T01:59:21.445Z,0.00
2022-09-17T02:00:07.443Z,0.00
2022-09-17T02:00:53.491Z,0.00
2022-09-17T02:01:39.469Z,0.00
2022-09-17T02:02:25.539Z,0.00
2022-09-17T02:03:11.500Z,0.00
2022-09-17T02:03:57.494Z,0.00
2022-09-17T02:04:43.514Z,0.00
2022-09-17T02:05:29.530Z,0.00
2022-09-17T02:06:15.482Z,0.00
2022-09-17T02:07:01.408Z,0.00
2022-09-17T02:07:47.420Z,0.00
2022-09-17T02:08:33.593Z,0.00
2022-09-17T02:09:19.508Z,0.00
2022-09-17T02:10:05.469Z,0.00
2022-09-17T02:10:51.508Z,0.00
2022-09-17T02:11:37.434Z,0.00
2022-09-17T02:12:23.518Z,0.00
2022-09-17T02:13:09.453Z,0.00
2022-09-17T02:13:55.479Z,0.00
2022-09-17T02:14:41.496Z,0.00
2022-09-17T02:15:27.586Z,0.00
2022-09-17T02:16:13.586Z,0.00
2022-09-17T02:16:59.432Z,0.00
2022-09-17T02:17:45.453Z,0.00
2022-09-17T02:18:32.041Z,0.00
2022-09-17T02:19:17.481Z,0.00
2022-09-17T02:20:03.544Z,0.00
2022-09-17T02:20:49.467Z,0.00
2022-09-17T02:21:35.512Z,0.00
2022-09-17T02:22:21.484Z,0.00
2022-09-17T02:23:07.551Z,0.00
2022-09-17T02:23:53.485Z,0.00
2022-09-17T02:24:39.490Z,0.00
2022-09-17T02:25:25.516Z,0.00
2022-09-17T02:26:11.420Z,0.00
2022-09-17T02:26:57.461Z,0.00
2022-09-17T02:27:43.512Z,0.00
2022-09-17T02:28:29.448Z,0.00
2022-09-17T02:29:15.454Z,0.00
2022-09-17T02:30:01.822Z,0.00
2022-09-17T02:30:47.549Z,0.00
2022-09-17T02:31:33.530Z,0.00
2022-09-17T02:32:19.477Z,0.00
2022-09-17T02:33:05.543Z,0.00
2022-09-17T02:33:51.627Z,0.00
2022-09-17T02:34:37.478Z,0.00
2022-09-17T02:35:23.758Z,0.00
2022-09-17T02:36:09.461Z,0.00
2022-09-17T02:36:55.433Z,0.00
2022-09-17T02:37:41.453Z,0.00
2022-09-17T02:38:27.453Z,0.00
2022-09-17T02:39:13.493Z,0.00
2022-09-17T02:39:59.514Z,0.00
2022-09-17T02:40:45.505Z,0.00
2022-09-17T02:41:31.821Z,0.00
2022-09-17T02:42:17.491Z,0.00
2022-09-17T02:43:03.458Z,0.00
2022-09-17T02:43:49.486Z,0.00
2022-09-17T02:44:35.521Z,0.00
2022-09-17T02:45:21.496Z,0.00
2022-09-17T02:46:07.520Z,0.00
2022-09-17T02:46:53.551Z,0.00
2022-09-17T02:47:39.487Z,0.00
2022-09-17T02:48:25.472Z,0.00
2022-09-17T02:49:11.493Z,0.00
2022-09-17T02:49:57.529Z,0.00
2022-09-17T02:50:43.575Z,0.00
2022-09-17T02:51:29.508Z,0.00
2022-09-17T02:52:15.486Z,0.00
2022-09-17T02:53:01.528Z,0.00
2022-09-17T02:53:47.560Z,0.00
2022-09-17T02:54:33.515Z,0.00
2022-09-17T02:55:19.547Z,0.00
2022-09-17T02:56:05.619Z,0.00
2022-09-17T02:56:51.564Z,0.00
2022-09-17T02:57:37.566Z,0.00
2022-09-17T02:58:23.547Z,0.00
2022-09-17T02:59:09.517Z,0.00
2022-09-17T02:59:55.527Z,0.00
2022-09-17T03:00:41.631Z,0.00
2022-09-17T03:01:27.593Z,0.00
2022-09-17T03:02:13.728Z,0.00
2022-09-17T03:02:59.561Z,0.00
2022-09-17T03:03:45.544Z,0.00
2022-09-17T03:04:31.834Z,0.00
2022-09-17T03:05:17.530Z,0.00
2022-09-17T03:06:03.663Z,0.00
2022-09-17T03:06:49.547Z,0.00
2022-09-17T03:07:35.562Z,0.00
2022-09-17T03:08:21.560Z,0.00
2022-09-17T03:09:07.536Z,0.00
2022-09-17T03:09:53.587Z,0.00
2022-09-17T03:10:39.543Z,0.00
2022-09-17T03:11:25.559Z,0.00
2022-09-17T03:12:11.557Z,0.00
2022-09-17T03:12:57.581Z,0.00
2022-09-17T03:13:43.704Z,0.00
2022-09-17T03:14:29.570Z,0.00
2022-09-17T03:15:15.629Z,0.00
2022-09-17T03:16:01.701Z,0.00
2022-09-17T03:16:47.546Z,0.00
2022-09-17T03:17:33.565Z,0.00
2022-09-17T03:18:19.593Z,0.00
2022-09-17T03:19:05.591Z,0.00
2022-09-17T03:19:51.724Z,0.00
2022-09-17T03:20:37.563Z,0.00
2022-09-17T03:21:23.585Z,0.00
2022-09-17T03:22:09.699Z,0.00
2022-09-17T03:22:55.570Z,0.00
2022-09-17T03:23:41.597Z,0.00
2022-09-17T03:24:27.639Z,0.00
2022-09-17T03:25:13.604Z,0.00
2022-09-17T03:25:59.579Z,0.00
2022-09-17T03:26:45.609Z,0.00
2022-09-17T03:27:31.800Z,0.00
2022-09-17T03:28:17.596Z,0.00
2022-09-17T03:29:03.580Z,0.00
2022-09-17T03:29:49.613Z,0.00
2022-09-17T03:30:35.762Z,0.00
2022-09-17T03:31:21.622Z,0.00
2022-09-17T03:32:07.595Z,0.00
2022-09-17T03:32:53.644Z,0.00
2022-09-17T03:33:39.630Z,0.00
2022-09-17T03:34:25.672Z,0.00
2022-09-17T03:35:11.619Z,0.00
2022-09-17T03:35:57.651Z,0.00
2022-09-17T03:36:43.650Z,0.00
2022-09-17T03:37:32.777Z,0.00
2022-09-17T03:38:15.618Z,0.00
2022-09-17T03:39:01.634Z,0.00
2022-09-17T03:39:47.631Z,0.00
2022-09-17T03:40:33.772Z,0.00
2022-09-17T03:41:19.638Z,0.00
2022-09-17T03:42:05.626Z,0.00
2022-09-17T03:42:51.602Z,0.00
2022-09-17T03:43:37.629Z,0.00
2022-09-17T03:44:23.674Z,0.00
2022-09-17T03:45:09.697Z,0.00
2022-09-17T03:45:55.625Z,0.00
2022-09-17T03:46:41.712Z,0.00
2022-09-17T03:47:27.650Z,0.00
2022-09-17T03:48:13.708Z,0.00
2022-09-17T03:48:59.649Z,0.00
2022-09-17T03:49:45.675Z,0.00
2022-09-17T03:50:31.938Z,0.00
2022-09-17T03:51:17.658Z,0.00
2022-09-17T03:52:03.648Z,0.00
2022-09-17T03:52:49.697Z,0.00
2022-09-17T03:53:35.677Z,0.00
2022-09-17T03:54:21.661Z,0.00
2022-09-17T03:55:07.700Z,0.00
2022-09-17T03:55:53.689Z,0.00
2022-09-17T03:56:39.679Z,0.00
2022-09-17T03:57:25.666Z,0.00
2022-09-17T03:58:11.723Z,0.00
2022-09-17T03:58:57.688Z,0.00
2022-09-17T03:59:43.773Z,0.00
2022-09-17T04:00:29.781Z,0.00
2022-09-17T04:01:15.789Z,0.00
2022-09-17T04:02:01.880Z,0.00
2022-09-17T04:02:47.786Z,0.00
2022-09-17T04:03:33.701Z,0.00
2022-09-17T04:04:19.714Z,0.00
2022-09-17T04:05:05.717Z,0.00
2022-09-17T04:05:51.682Z,0.00
2022-09-17T04:06:37.733Z,0.00
2022-09-17T04:07:23.728Z,0.00
2022-09-17T04:08:09.730Z,0.00
2022-09-17T04:08:55.697Z,0.00
2022-09-17T04:09:41.693Z,0.00
2022-09-17T04:10:27.702Z,0.00
2022-09-17T04:11:13.763Z,0.00
2022-09-17T04:11:59.681Z,0.00
2022-09-17T04:12:45.681Z,0.00
2022-09-17T04:13:31.978Z,0.00
2022-09-17T04:14:17.740Z,0.00
2022-09-17T04:15:03.848Z,0.00
2022-09-17T04:15:49.803Z,0.00
2022-09-17T04:16:35.784Z,0.00
2022-09-17T04:17:21.740Z,0.00
2022-09-17T04:18:07.717Z,0.00
2022-09-17T04:18:53.706Z,0.00
2022-09-17T04:19:39.758Z,0.00
2022-09-17T04:20:25.746Z,0.00
2022-09-17T04:21:11.727Z,0.00
2022-09-17T04:21:57.763Z,0.00
2022-09-17T04:22:43.817Z,0.00
2022-09-17T04:23:29.711Z,0.00
2022-09-17T04:24:15.716Z,0.00
2022-09-17T04:25:01.861Z,0.00
2022-09-17T04:25:47.761Z,0.00
2022-09-17T04:26:33.735Z,0.00
2022-09-17T04:27:19.738Z,0.00
2022-09-17T04:28:05.731Z,0.00
2022-09-17T04:28:51.762Z,0.00
2022-09-17T04:29:37.724Z,0.00
2022-09-17T04:30:23.858Z,0.00
2022-09-17T04:31:09.804Z,0.00
2022-09-17T04:31:55.755Z,0.00
2022-09-17T04:32:41.744Z,0.00
2022-09-17T04:33:27.820Z,0.00
2022-09-17T04:34:13.845Z,0.00
2022-09-17T04:34:59.755Z,0.00
2022-09-17T04:35:45.760Z,0.00
2022-09-17T04:36:32.071Z,0.00
2022-09-17T04:37:17.749Z,0.00
2022-09-17T04:38:03.752Z,0.00
2022-09-17T04:38:49.778Z,0.00
2022-09-17T04:39:35.820Z,0.00
2022-09-17T04:40:21.844Z,0.00
2022-09-17T04:41:07.785Z,0.00
2022-09-17T04:41:53.771Z,0.00
2022-09-17T04:42:39.832Z,0.00
2022-09-17T04:43:25.786Z,0.00
2022-09-17T04:44:11.831Z,0.00
2022-09-17T04:44:57.802Z,0.00
2022-09-17T04:45:43.980Z,0.00
2022-09-17T04:46:29.825Z,0.00
2022-09-17T04:47:15.811Z,0.00
2022-09-17T04:48:01.848Z,0.00
2022-09-17T04:48:47.823Z,0.00
2022-09-17T04:49:33.812Z,0.00
2022-09-17T04:50:19.818Z,0.00
2022-09-17T04:51:05.857Z,0.00
2022-09-17T04:51:51.894Z,0.00
2022-09-17T04:52:37.795Z,0.00
2022-09-17T04:53:23.784Z,0.00
2022-09-17T04:54:09.842Z,0.00
2022-09-17T04:54:55.880Z,0.00
2022-09-17T04:55:41.882Z,0.00
2022-09-17T04:56:27.828Z,0.00
2022-09-17T04:57:13.850Z,0.00
2022-09-17T04:57:59.809Z,0.00
2022-09-17T04:58:45.847Z,0.00
2022-09-17T04:59:31.970Z,0.00
2022-09-17T05:00:17.870Z,0.00
2022-09-17T05:01:03.845Z,0.00
2022-09-17T05:01:49.956Z,0.00
2022-09-17T05:02:35.841Z,0.00
2022-09-17T05:03:21.815Z,0.00
2022-09-17T05:04:07.826Z,0.00
2022-09-17T05:04:53.859Z,0.00
2022-09-17T05:05:39.872Z,0.00
2022-09-17T05:06:25.847Z,0.00
2022-09-17T05:07:13.863Z,0.00
2022-09-17T05:07:57.891Z,0.00
2022-09-17T05:08:43.969Z,0.00
2022-09-17T05:09:29.856Z,0.00
2022-09-17T05:10:15.918Z,0.00
2022-09-17T05:11:01.850Z,0.00
2022-09-17T05:11:47.849Z,0.00
2022-09-17T05:12:34.618Z,0.00
2022-09-17T05:13:19.941Z,0.00
2022-09-17T05:14:05.856Z,0.00
2022-09-17T05:14:51.929Z,0.85
2022-09-17T05:15:37.922Z,0.00
2022-09-17T05:16:23.982Z,0.85
2022-09-17T05:17:09.995Z,0.00
2022-09-17T05:17:56.749Z,0.00
2022-09-17T05:18:41.924Z,1.22
2022-09-17T05:19:27.905Z,0.36
2022-09-17T05:20:14.003Z,0.85
2022-09-17T05:20:59.861Z,0.36
2022-09-17T05:21:45.870Z,0.36
2022-09-17T05:22:32.324Z,1.22
2022-09-17T05:23:17.930Z,0.85
2022-09-17T05:24:03.908Z,0.85
2022-09-17T05:24:50.000Z,0.85
2022-09-17T05:25:35.931Z,1.71
2022-09-17T05:26:21.911Z,0.85
2022-09-17T05:27:07.926Z,0.85
2022-09-17T05:27:53.923Z,1.71
2022-09-17T05:28:39.944Z,1.71
2022-09-17T05:29:25.920Z,1.71
2022-09-17T05:30:12.013Z,2.08
2022-09-17T05:30:57.971Z,2.57
2022-09-17T05:31:44.102Z,2.94
2022-09-17T05:32:29.931Z,2.94
2022-09-17T05:33:15.963Z,3.79
2022-09-17T05:34:02.309Z,3.79
2022-09-17T05:34:47.970Z,3.79
2022-09-17T05:35:34.002Z,3.79
2022-09-17T05:36:19.982Z,4.77
2022-09-17T05:37:05.971Z,5.14
2022-09-17T05:37:51.955Z,5.14
2022-09-17T05:38:38.026Z,5.99
2022-09-17T05:39:23.951Z,5.63
2022-09-17T05:40:10.045Z,4.77
2022-09-17T05:40:55.958Z,4.28
2022-09-17T05:41:41.977Z,4.77
2022-09-17T05:42:27.962Z,5.14
2022-09-17T05:43:13.995Z,5.63
2022-09-17T05:44:00.026Z,5.63
2022-09-17T05:44:45.951Z,5.99
2022-09-17T05:45:32.244Z,5.63
2022-09-17T05:46:18.026Z,5.63
2022-09-17T05:47:04.039Z,5.63
2022-09-17T05:47:50.008Z,6.48
2022-09-17T05:48:35.985Z,7.70
2022-09-17T05:49:21.996Z,7.34
2022-09-17T05:50:08.003Z,8.19
2022-09-17T05:50:53.989Z,7.70
2022-09-17T05:51:40.033Z,7.34
2022-09-17T05:52:25.975Z,8.19
2022-09-17T05:53:12.008Z,8.56
2022-09-17T05:53:57.974Z,8.56
2022-09-17T05:54:44.136Z,9.05
2022-09-17T05:55:29.974Z,9.54
2022-09-17T05:56:16.009Z,10.39
2022-09-17T05:57:02.011Z,11.62
2022-09-17T05:57:48.007Z,12.48
2022-09-17T05:58:34.071Z,13.33
2022-09-17T05:59:20.058Z,13.82
2022-09-17T06:00:06.034Z,16.88
2022-09-17T06:00:52.035Z,18.60
2022-09-17T06:01:38.050Z,19.08
2022-09-17T06:02:24.077Z,19.94
2022-09-17T06:03:10.252Z,19.45
2022-09-17T06:03:56.033Z,19.94
2022-09-17T06:04:42.054Z,19.94
2022-09-17T06:05:28.032Z,19.08
2022-09-17T06:06:14.091Z,19.08
2022-09-17T06:07:00.023Z,17.25
2022-09-17T06:07:46.000Z,16.39
2022-09-17T06:08:32.393Z,16.39
2022-09-17T06:09:17.993Z,16.88
2022-09-17T06:10:04.074Z,17.73
2022-09-17T06:10:50.095Z,19.08
2022-09-17T06:11:36.042Z,19.94
2022-09-17T06:12:22.117Z,21.16
2022-09-17T06:13:08.018Z,22.51
2022-09-17T06:13:54.077Z,22.02
2022-09-17T06:14:40.044Z,22.02
2022-09-17T06:15:26.069Z,20.80
2022-09-17T06:16:12.073Z,20.80
2022-09-17T06:16:58.137Z,19.08
2022-09-17T06:17:44.205Z,18.60
2022-09-17T06:18:30.050Z,18.11
2022-09-17T06:19:16.056Z,16.39
2022-09-17T06:20:02.229Z,17.25
2022-09-17T06:20:48.054Z,16.88
2022-09-17T06:21:34.184Z,17.25
2022-09-17T06:22:20.053Z,18.60
2022-09-17T06:23:06.040Z,18.60
2022-09-17T06:23:52.117Z,19.45
2022-09-17T06:24:38.079Z,19.94
2022-09-17T06:25:24.140Z,18.11
2022-09-17T06:26:10.126Z,18.11
2022-09-17T06:26:56.163Z,18.60
2022-09-17T06:27:42.065Z,18.11
2022-09-17T06:28:28.122Z,19.08
2022-09-17T06:29:14.085Z,19.94
2022-09-17T06:30:00.081Z,21.65
2022-09-17T06:30:46.164Z,23.36
2022-09-17T06:31:32.279Z,23.36
2022-09-17T06:32:18.140Z,22.87
2022-09-17T06:33:04.247Z,21.65
2022-09-17T06:33:50.090Z,21.16
2022-09-17T06:34:36.112Z,22.51
2022-09-17T06:35:22.127Z,23.36
2022-09-17T06:36:12.607Z,22.51
2022-09-17T06:36:54.154Z,23.36
2022-09-17T06:37:40.247Z,27.28
2022-09-17T06:38:26.133Z,28.99
2022-09-17T06:39:12.191Z,29.85
2022-09-17T06:39:58.216Z,34.25
2022-09-17T06:40:44.175Z,41.10
2022-09-17T06:41:30.140Z,46.73
2022-09-17T06:42:16.100Z,54.56
2022-09-17T06:43:02.207Z,52.48
2022-09-17T06:43:48.122Z,43.80
2022-09-17T06:44:34.178Z,37.19
2022-09-17T06:45:20.241Z,35.97
2022-09-17T06:46:06.356Z,37.68
2022-09-17T06:46:52.203Z,39.02
2022-09-17T06:47:38.151Z,37.68
2022-09-17T06:48:24.184Z,36.33
2022-09-17T06:49:10.229Z,34.25
2022-09-17T06:49:56.111Z,28.99
2022-09-17T06:50:42.847Z,28.14
2022-09-17T06:51:28.156Z,33.76
2022-09-17T06:52:14.196Z,37.68
2022-09-17T06:53:00.174Z,33.39
2022-09-17T06:53:46.246Z,32.05
2022-09-17T06:54:32.179Z,33.39
2022-09-17T06:55:18.130Z,49.79
2022-09-17T06:56:06.473Z,57.62
2022-09-17T06:56:50.146Z,49.79
2022-09-17T06:57:36.133Z,48.07
2022-09-17T06:58:22.179Z,46.36
2022-09-17T06:59:08.227Z,50.28
2022-09-17T06:59:54.209Z,42.94
2022-09-17T07:00:40.515Z,35.48
2022-09-17T07:01:26.225Z,37.68
2022-09-17T07:02:12.229Z,35.97
2022-09-17T07:02:58.193Z,36.82
2022-09-17T07:03:44.256Z,33.76
2022-09-17T07:04:30.202Z,33.39
2022-09-17T07:05:16.152Z,34.25
2022-09-17T07:06:02.285Z,34.62
2022-09-17T07:06:48.177Z,34.62
2022-09-17T07:07:34.193Z,32.90
2022-09-17T07:08:20.163Z,29.48
2022-09-17T07:09:10.773Z,34.25
2022-09-17T07:09:52.192Z,32.42
2022-09-17T07:10:38.400Z,32.90
2022-09-17T07:11:24.190Z,32.05
2022-09-17T07:12:10.238Z,32.42
2022-09-17T07:12:56.170Z,32.05
2022-09-17T07:13:42.261Z,32.42
2022-09-17T07:14:28.220Z,33.76
2022-09-17T07:15:14.418Z,33.39
2022-09-17T07:16:00.329Z,33.39
2022-09-17T07:16:46.196Z,33.76
2022-09-17T07:17:32.254Z,33.76
2022-09-17T07:18:18.178Z,34.62
2022-09-17T07:19:04.207Z,34.62
2022-09-17T07:19:50.214Z,34.25
2022-09-17T07:20:36.224Z,34.25
2022-09-17T07:21:22.210Z,33.76
2022-09-17T07:22:08.243Z,35.97
2022-09-17T07:22:54.268Z,35.48
2022-09-17T07:23:40.284Z,35.48
2022-09-17T07:24:30.643Z,35.48
2022-09-17T07:25:12.222Z,33.76
2022-09-17T07:25:58.246Z,34.62
2022-09-17T07:26:44.287Z,35.11
2022-09-17T07:27:30.260Z,35.97
2022-09-17T07:28:16.251Z,37.68
2022-09-17T07:29:02.218Z,39.02
2022-09-17T07:29:48.227Z,33.39
2022-09-17T07:30:34.307Z,32.42
2022-09-17T07:31:20.279Z,32.05
2022-09-17T07:32:06.284Z,38.17
2022-09-17T07:32:52.296Z,40.73
2022-09-17T07:33:38.217Z,32.90
2022-09-17T07:34:24.312Z,30.70
2022-09-17T07:35:10.461Z,29.48
2022-09-17T07:35:56.281Z,28.63
2022-09-17T07:36:42.299Z,31.19
2022-09-17T07:37:28.281Z,34.25
2022-09-17T07:38:14.367Z,32.42
2022-09-17T07:39:00.271Z,34.25
2022-09-17T07:39:46.255Z,35.48
2022-09-17T07:40:32.298Z,36.33
2022-09-17T07:41:18.290Z,41.59
2022-09-17T07:42:04.283Z,36.33
2022-09-17T07:42:50.314Z,43.80
2022-09-17T07:43:36.295Z,43.31
2022-09-17T07:44:22.304Z,44.65
2022-09-17T07:45:08.327Z,46.36
2022-09-17T07:45:54.304Z,46.36
2022-09-17T07:46:40.579Z,40.73
2022-09-17T07:47:26.400Z,43.80
2022-09-17T07:48:12.285Z,53.70
2022-09-17T07:48:58.372Z,65.45
2022-09-17T07:49:44.436Z,68.02
2022-09-17T07:50:30.290Z,69.73
2022-09-17T07:51:16.285Z,62.88
2022-09-17T07:52:02.320Z,56.27
2022-09-17T07:52:48.277Z,50.28
2022-09-17T07:53:34.345Z,49.79
2022-09-17T07:54:20.310Z,45.51
2022-09-17T07:55:06.305Z,43.80
2022-09-17T07:55:52.370Z,54.56
2022-09-17T07:56:38.400Z,63.24
2022-09-17T07:57:24.457Z,54.56
2022-09-17T07:58:10.512Z,51.50
2022-09-17T07:58:56.384Z,56.76
2022-09-17T07:59:42.317Z,66.31
2022-09-17T08:00:28.415Z,61.17
2022-09-17T08:01:14.416Z,61.53
2022-09-17T08:02:00.456Z,54.19
2022-09-17T08:02:46.530Z,51.99
2022-09-17T08:03:32.328Z,53.34
2022-09-17T08:04:18.370Z,58.11
2022-09-17T08:05:04.483Z,65.94
2022-09-17T08:05:50.363Z,58.48
2022-09-17T08:06:36.367Z,77.56
2022-09-17T08:07:22.368Z,75.48
2022-09-17T08:08:08.403Z,78.41
2022-09-17T08:08:54.393Z,95.79
2022-09-17T08:09:40.716Z,117.93
2022-09-17T08:10:26.457Z,124.41
2022-09-17T08:11:12.557Z,126.61
2022-09-17T08:11:58.453Z,120.50
2022-09-17T08:12:44.462Z,120.50
2022-09-17T08:13:30.380Z,101.05
2022-09-17T08:14:16.327Z,97.50
2022-09-17T08:15:02.553Z,83.68
2022-09-17T08:15:48.404Z,105.33
2022-09-17T08:16:34.407Z,115.73
2022-09-17T08:17:20.435Z,110.96
2022-09-17T08:18:06.363Z,91.51
2022-09-17T08:18:52.409Z,80.25
2022-09-17T08:19:38.397Z,77.19
2022-09-17T08:20:24.430Z,85.39
2022-09-17T08:21:10.577Z,97.13
2022-09-17T08:21:56.348Z,109.24
2022-09-17T08:22:44.011Z,108.39
2022-09-17T08:23:28.425Z,90.16
2022-09-17T08:24:14.441Z,78.90
2022-09-17T08:25:00.413Z,64.96
2022-09-17T08:25:46.396Z,70.22
2022-09-17T08:26:32.402Z,94.07
2022-09-17T08:27:18.381Z,117.93
2022-09-17T08:28:04.439Z,115.36
2022-09-17T08:28:50.549Z,119.64
2022-09-17T08:29:36.488Z,141.42
2022-09-17T08:30:22.559Z,120.50
2022-09-17T08:31:08.545Z,98.85
2022-09-17T08:31:54.497Z,74.14
2022-09-17T08:32:40.599Z,99.70
2022-09-17T08:33:26.525Z,128.33
2022-09-17T08:34:12.561Z,123.19
2022-09-17T08:34:58.525Z,111.44
2022-09-17T08:35:44.521Z,146.56
2022-09-17T08:36:30.591Z,307.55
2022-09-17T08:37:16.562Z,197.32
2022-09-17T08:38:02.679Z,203.81
2022-09-17T08:38:48.698Z,172.61
2022-09-17T08:39:34.386Z,104.48
2022-09-17T08:40:20.744Z,131.39
2022-09-17T08:41:06.551Z,217.27
2022-09-17T08:41:52.538Z,230.73
2022-09-17T08:42:38.674Z,253.73
2022-09-17T08:43:24.499Z,187.78
2022-09-17T08:44:10.694Z,137.51
2022-09-17T08:45:00.551Z,122.34
2022-09-17T08:45:42.600Z,172.61
2022-09-17T08:46:28.526Z,143.13
2022-09-17T08:47:14.637Z,146.19
2022-09-17T08:48:00.571Z,139.22
2022-09-17T08:48:46.560Z,264.12
2022-09-17T08:49:32.598Z,125.27
2022-09-17T08:50:18.447Z,92.73
2022-09-17T08:51:08.419Z,91.51
2022-09-17T08:51:50.530Z,105.33
2022-09-17T08:52:36.535Z,83.68
2022-09-17T08:53:22.492Z,78.41
2022-09-17T08:54:08.426Z,84.53
2022-09-17T08:54:54.538Z,93.22
2022-09-17T08:55:40.665Z,98.36
2022-09-17T08:56:26.744Z,99.34
2022-09-17T08:57:12.448Z,92.73
2022-09-17T08:57:58.561Z,570.82
2022-09-17T08:58:44.641Z,565.19
2022-09-17T08:59:30.589Z,484.45
2022-09-17T09:00:16.689Z,563.48
2022-09-17T09:01:02.664Z,533.50
2022-09-17T09:01:48.754Z,540.84
2022-09-17T09:02:34.746Z,545.25
2022-09-17T09:03:20.660Z,543.54
2022-09-17T09:04:06.659Z,542.68
2022-09-17T09:04:52.593Z,555.65
2022-09-17T09:05:38.595Z,566.05
2022-09-17T09:06:24.576Z,596.02
2022-09-17T09:07:10.665Z,619.87
2022-09-17T09:07:56.633Z,619.38
2022-09-17T09:08:42.603Z,454.60
2022-09-17T09:09:28.759Z,608.13
2022-09-17T09:10:14.672Z,624.65
2022-09-17T09:11:00.733Z,652.42
2022-09-17T09:11:46.585Z,670.16
2022-09-17T09:12:32.613Z,675.41
2022-09-17T09:13:18.606Z,683.61
2022-09-17T09:14:04.620Z,690.96
2022-09-17T09:14:50.716Z,141.78
2022-09-17T09:15:36.668Z,712.24
2022-09-17T09:16:22.632Z,102.27
2022-09-17T09:17:08.488Z,101.90
2022-09-17T09:17:54.637Z,184.73
2022-09-17T09:18:40.697Z,117.07
2022-09-17T09:19:26.661Z,337.03
2022-09-17T09:20:12.645Z,281.00
2022-09-17T09:20:58.708Z,682.39
2022-09-17T09:21:44.693Z,645.94
2022-09-17T09:22:30.686Z,318.32
2022-09-17T09:23:16.677Z,635.04
2022-09-17T09:24:02.633Z,721.41
2022-09-17T09:24:48.645Z,129.68
2022-09-17T09:25:34.588Z,93.58
2022-09-17T09:26:20.578Z,97.99
2022-09-17T09:27:05.797Z,97.99
2022-09-17T09:27:52.565Z,83.19
2022-09-17T09:28:38.559Z,87.59
2022-09-17T09:29:24.612Z,98.85
2022-09-17T09:30:10.794Z,106.68
2022-09-17T09:30:56.567Z,117.07
2022-09-17T09:31:42.782Z,127.96
2022-09-17T09:32:28.676Z,133.95
2022-09-17T09:33:14.867Z,137.87
2022-09-17T09:34:00.793Z,134.44
2022-09-17T09:34:46.744Z,120.13
2022-09-17T09:35:32.576Z,107.53
2022-09-17T09:36:18.590Z,100.56
2022-09-17T09:37:04.597Z,97.50
2022-09-17T09:37:50.613Z,96.65
2022-09-17T09:38:36.575Z,86.73
2022-09-17T09:39:22.563Z,68.02
2022-09-17T09:40:08.597Z,58.97
2022-09-17T09:40:54.620Z,52.48
2022-09-17T09:41:40.776Z,53.34
2022-09-17T09:42:26.656Z,56.27
2022-09-17T09:43:12.581Z,58.11
2022-09-17T09:44:04.403Z,61.17
2022-09-17T09:44:44.623Z,68.02
2022-09-17T09:45:30.616Z,68.51
2022-09-17T09:46:16.617Z,67.65
2022-09-17T09:47:02.756Z,67.16
2022-09-17T09:47:48.569Z,61.53
2022-09-17T09:48:34.616Z,56.76
2022-09-17T09:49:20.699Z,55.05
2022-09-17T09:50:06.628Z,66.80
2022-09-17T09:51:06.071Z,81.97
2022-09-17T09:51:38.558Z,95.42
2022-09-17T09:52:24.729Z,134.81
2022-09-17T09:53:10.962Z,229.38
2022-09-17T09:53:56.668Z,165.27
2022-09-17T09:54:42.718Z,137.02
2022-09-17T09:55:29.220Z,184.73
2022-09-17T09:56:14.795Z,492.28
2022-09-17T09:57:00.688Z,551.37
2022-09-17T09:57:46.692Z,546.11
2022-09-17T09:58:32.725Z,394.29
2022-09-17T09:59:18.720Z,533.99
2022-09-17T10:00:04.884Z,617.67
2022-09-17T10:00:50.825Z,600.30
2022-09-17T10:01:36.905Z,608.99